createdAt,value
2023-05-22T00:01:06.756Z,100.00
2023-05-22T00:03:33.932Z,100.00
2023-05-22T00:06:00.734Z,100.00
2023-05-22T00:08:29.640Z,100.00
2023-05-22T00:10:56.750Z,100.00
2023-05-22T00:13:23.537Z,100.00
2023-05-22T00:15:50.393Z,100.00
2023-05-22T00:18:17.365Z,100.00
2023-05-22T00:20:46.725Z,100.00
2023-05-22T00:23:15.696Z,100.00
2023-05-22T00:25:43.195Z,100.00
2023-05-22T00:28:12.044Z,100.00
2023-05-22T00:30:38.979Z,100.00
2023-05-22T00:33:06.348Z,100.00
2023-05-22T00:35:33.743Z,100.00
2023-05-22T00:38:04.019Z,100.00
2023-05-22T00:40:31.032Z,100.00
2023-05-22T00:42:57.876Z,100.00
2023-05-22T00:45:24.682Z,100.00
2023-05-22T00:47:52.300Z,100.00
2023-05-22T00:50:19.437Z,100.00
2023-05-22T00:52:47.538Z,100.00
2023-05-22T00:55:15.257Z,100.00
2023-05-22T00:57:42.300Z,100.00
2023-05-22T01:00:13.836Z,100.00
2023-05-22T01:02:43.337Z,100.00
2023-05-22T01:05:13.299Z,100.00
2023-05-22T01:07:40.648Z,100.00
2023-05-22T01:10:08.174Z,100.00
2023-05-22T01:12:57.421Z,100.00
2023-05-22T01:15:35.578Z,100.00
2023-05-22T01:18:19.974Z,100.00
2023-05-22T01:21:10.411Z,100.00
2023-05-22T01:23:40.339Z,100.00
2023-05-22T01:26:12.921Z,100.00
2023-05-22T01:28:56.089Z,100.00
2023-05-22T01:31:31.600Z,100.00
2023-05-22T01:34:01.130Z,100.00
2023-05-22T01:36:31.430Z,100.00
2023-05-22T01:39:01.698Z,100.00
2023-05-22T01:41:29.981Z,100.00
2023-05-22T01:43:56.945Z,100.00
2023-05-22T01:46:30.420Z,100.00
2023-05-22T01:48:58.007Z,100.00
2023-05-22T01:51:36.855Z,100.00
2023-05-22T01:54:24.486Z,100.00
2023-05-22T01:57:07.714Z,100.00
2023-05-22T01:59:45.543Z,100.00
2023-05-22T02:02:17.951Z,100.00
2023-05-22T02:04:56.070Z,100.00
2023-05-22T02:07:25.142Z,100.00
2023-05-22T02:09:54.040Z,100.00
2023-05-22T02:12:22.004Z,100.00
2023-05-22T02:14:49.488Z,100.00
2023-05-22T02:17:18.222Z,100.00
2023-05-22T02:19:45.311Z,100.00
2023-05-22T02:22:14.898Z,100.00
2023-05-22T02:24:47.776Z,100.00
2023-05-22T02:27:14.532Z,100.00
2023-05-22T02:29:41.357Z,100.00
2023-05-22T02:32:08.696Z,100.00
2023-05-22T02:34:35.431Z,100.00
2023-05-22T02:37:05.401Z,100.00
2023-05-22T02:39:32.104Z,100.00
2023-05-22T02:41:58.863Z,100.00
2023-05-22T02:44:25.663Z,100.00
2023-05-22T02:46:52.495Z,100.00
2023-05-22T02:49:19.288Z,100.00
2023-05-22T02:51:47.942Z,100.00
2023-05-22T02:54:16.065Z,100.00
2023-05-22T02:56:43.715Z,100.00
2023-05-22T02:59:10.607Z,100.00
2023-05-22T03:01:38.842Z,100.00
2023-05-22T03:04:06.750Z,100.00
2023-05-22T03:06:35.416Z,100.00
2023-05-22T03:09:04.802Z,100.00
2023-05-22T03:11:32.256Z,100.00
2023-05-22T03:13:58.985Z,100.00
2023-05-22T03:16:26.781Z,100.00
2023-05-22T03:19:17.018Z,100.00
2023-05-22T03:21:48.499Z,100.00
2023-05-22T03:24:15.187Z,100.00
2023-05-22T03:26:42.097Z,100.00
2023-05-22T03:29:08.826Z,100.00
2023-05-22T03:31:36.098Z,100.00
2023-05-22T03:34:03.767Z,100.00
2023-05-22T03:36:34.007Z,100.00
2023-05-22T03:39:00.968Z,100.00
2023-05-22T03:41:27.732Z,100.00
2023-05-22T03:43:54.421Z,100.00
2023-05-22T03:46:21.437Z,100.00
2023-05-22T03:48:48.350Z,100.00
2023-05-22T03:51:15.082Z,100.00
2023-05-22T03:53:41.838Z,100.00
2023-05-22T03:56:08.583Z,100.00
2023-05-22T03:58:35.328Z,100.00
2023-05-22T04:01:02.103Z,100.00
2023-05-22T04:03:29.027Z,100.00
2023-05-22T04:05:57.053Z,100.00
2023-05-22T04:08:23.842Z,100.00
2023-05-22T04:10:50.555Z,100.00
2023-05-22T04:13:17.539Z,100.00
2023-05-22T04:15:46.907Z,100.00
2023-05-22T04:18:14.252Z,100.00
2023-05-22T04:20:41.156Z,100.00
2023-05-22T04:23:08.103Z,100.00
2023-05-22T04:25:34.845Z,100.00
2023-05-22T04:28:04.391Z,100.00
2023-05-22T04:30:34.229Z,100.00
2023-05-22T04:33:01.847Z,100.00
2023-05-22T04:35:29.723Z,100.00
2023-05-22T04:37:57.494Z,100.00
2023-05-22T04:40:24.213Z,100.00
2023-05-22T04:42:54.380Z,100.00
2023-05-22T04:45:25.418Z,100.00
2023-05-22T04:47:53.313Z,100.00
2023-05-22T04:50:20.724Z,100.00
2023-05-22T04:52:48.128Z,100.00
2023-05-22T04:55:14.894Z,100.00
2023-05-22T04:57:44.731Z,100.00
2023-05-22T05:00:13.945Z,100.00
2023-05-22T05:02:41.462Z,100.00
2023-05-22T05:05:08.771Z,100.00
2023-05-22T05:07:43.610Z,100.00
2023-05-22T05:10:10.619Z,100.00
2023-05-22T05:12:37.439Z,100.00
2023-05-22T05:15:04.807Z,100.00
2023-05-22T05:17:31.651Z,100.00
2023-05-22T05:19:58.324Z,100.00
2023-05-22T05:22:25.570Z,100.00
2023-05-22T05:24:52.313Z,100.00
2023-05-22T05:27:19.182Z,100.00
2023-05-22T05:29:46.805Z,100.00
2023-05-22T05:32:14.067Z,100.00
2023-05-22T05:34:41.561Z,100.00
2023-05-22T05:37:09.113Z,100.00
2023-05-22T05:39:35.957Z,100.00
2023-05-22T05:42:02.654Z,100.00
2023-05-22T05:44:29.384Z,100.00
2023-05-22T05:46:56.057Z,100.00
2023-05-22T05:49:22.767Z,100.00
2023-05-22T05:51:49.491Z,100.00
2023-05-22T05:54:16.170Z,100.00
2023-05-22T05:56:43.040Z,100.00
2023-05-22T05:59:10.096Z,100.00
2023-05-22T06:01:38.796Z,100.00
2023-05-22T06:04:05.872Z,100.00
2023-05-22T06:06:36.568Z,100.00
2023-05-22T06:09:07.362Z,100.00
2023-05-22T06:11:34.195Z,100.00
2023-05-22T06:14:08.417Z,100.00
2023-05-22T06:16:35.189Z,100.00
2023-05-22T06:19:02.169Z,100.00
2023-05-22T06:21:29.112Z,100.00
2023-05-22T06:23:55.792Z,100.00
2023-05-22T06:26:23.654Z,100.00
2023-05-22T06:28:51.920Z,100.00
2023-05-22T06:31:18.920Z,100.00
2023-05-22T06:33:45.821Z,100.00
2023-05-22T06:36:12.714Z,100.00
2023-05-22T06:38:39.465Z,100.00
2023-05-22T06:41:06.542Z,100.00
2023-05-22T06:43:33.548Z,100.00
2023-05-22T06:46:00.484Z,100.00
2023-05-22T06:48:27.244Z,100.00
2023-05-22T06:50:53.962Z,100.00
2023-05-22T06:53:20.617Z,100.00
2023-05-22T06:55:47.400Z,100.00
2023-05-22T06:58:14.107Z,100.00
2023-05-22T07:00:40.986Z,100.00
2023-05-22T07:03:07.824Z,100.00
2023-05-22T07:05:34.780Z,100.00
2023-05-22T07:08:01.684Z,100.00
2023-05-22T07:10:28.598Z,100.00
2023-05-22T07:12:55.393Z,100.00
2023-05-22T07:15:22.085Z,100.00
2023-05-22T07:17:49.398Z,100.00
2023-05-22T07:20:16.953Z,100.00
2023-05-22T07:22:43.768Z,100.00
2023-05-22T07:25:10.678Z,100.00
2023-05-22T07:27:37.474Z,100.00
2023-05-22T07:30:04.538Z,100.00
2023-05-22T07:32:31.405Z,100.00
2023-05-22T07:34:58.156Z,100.00
2023-05-22T07:37:25.107Z,100.00
2023-05-22T07:39:51.800Z,100.00
2023-05-22T07:42:18.799Z,100.00
2023-05-22T07:44:45.509Z,100.00
2023-05-22T07:47:12.160Z,100.00
2023-05-22T07:49:38.859Z,100.00
2023-05-22T07:52:05.964Z,100.00
2023-05-22T07:54:32.649Z,100.00
2023-05-22T07:57:03.325Z,100.00
2023-05-22T07:59:29.997Z,100.00
2023-05-22T08:01:58.367Z,100.00
2023-05-22T08:04:26.253Z,100.00
2023-05-22T08:06:53.151Z,100.00
2023-05-22T08:09:21.326Z,100.00
2023-05-22T08:11:48.185Z,100.00
2023-05-22T08:14:15.021Z,100.00
2023-05-22T08:16:41.798Z,100.00
2023-05-22T08:19:09.130Z,100.00
2023-05-22T08:21:37.741Z,100.00
2023-05-22T08:24:04.700Z,100.00
2023-05-22T08:26:33.407Z,100.00
2023-05-22T08:29:00.730Z,100.00
2023-05-22T08:31:29.340Z,100.00
2023-05-22T08:34:02.773Z,100.00
2023-05-22T08:36:34.214Z,100.00
2023-05-22T08:39:01.617Z,100.00
2023-05-22T08:41:29.416Z,100.00
2023-05-22T08:43:56.147Z,100.00
2023-05-22T08:46:26.571Z,100.00
2023-05-22T08:48:57.134Z,100.00
2023-05-22T08:51:29.329Z,100.00
2023-05-22T08:53:57.476Z,100.00
2023-05-22T08:56:25.528Z,100.00
2023-05-22T08:58:54.413Z,100.00
2023-05-22T09:01:21.788Z,100.00
2023-05-22T09:03:51.430Z,100.00
2023-05-22T09:06:18.687Z,100.00
2023-05-22T09:08:46.186Z,100.00
2023-05-22T09:11:13.360Z,100.00
2023-05-22T09:13:41.341Z,100.00
2023-05-22T09:16:13.463Z,100.00
2023-05-22T09:18:42.216Z,100.00
2023-05-22T09:21:21.710Z,100.00
2023-05-22T09:23:59.203Z,100.00
2023-05-22T09:26:29.456Z,100.00
2023-05-22T09:28:57.316Z,100.00
2023-05-22T09:31:24.129Z,100.00
2023-05-22T09:33:51.016Z,100.00
2023-05-22T09:36:17.993Z,100.00
2023-05-22T09:38:45.209Z,100.00
2023-05-22T09:41:11.958Z,100.00
2023-05-22T09:43:38.764Z,100.00
2023-05-22T09:46:05.585Z,100.00
2023-05-22T09:48:36.746Z,100.00
2023-05-22T09:51:04.341Z,100.00
2023-05-22T09:53:33.753Z,100.00
2023-05-22T09:56:02.172Z,100.00
2023-05-22T09:58:31.299Z,100.00
2023-05-22T10:00:59.379Z,100.00
2023-05-22T10:03:27.649Z,100.00
2023-05-22T10:05:58.827Z,100.00
2023-05-22T10:08:28.862Z,100.00
2023-05-22T10:10:56.234Z,100.00
2023-05-22T10:13:25.359Z,100.00
2023-05-22T10:15:53.355Z,100.00
2023-05-22T10:18:20.401Z,100.00
2023-05-22T10:20:49.030Z,100.00
2023-05-22T10:23:18.721Z,100.00
2023-05-22T10:25:45.996Z,100.00
2023-05-22T10:28:19.562Z,100.00
2023-05-22T10:31:10.053Z,100.00
2023-05-22T10:33:45.103Z,100.00
2023-05-22T10:36:24.578Z,100.00
2023-05-22T10:39:27.220Z,100.00
2023-05-22T10:41:54.196Z,100.00
2023-05-22T10:44:22.380Z,100.00
2023-05-22T10:46:53.013Z,100.00
2023-05-22T10:49:23.967Z,100.00
2023-05-22T10:51:57.133Z,100.00
2023-05-22T10:54:43.035Z,100.00
2023-05-22T10:57:12.260Z,100.00
2023-05-22T10:59:38.978Z,100.00
2023-05-22T11:02:07.736Z,100.00
2023-05-22T11:04:36.306Z,100.00
2023-05-22T11:07:05.182Z,100.00
2023-05-22T11:09:45.837Z,100.00
2023-05-22T11:12:28.459Z,100.00
2023-05-22T11:14:59.121Z,100.00
2023-05-22T11:17:29.939Z,100.00
2023-05-22T11:20:06.203Z,100.00
2023-05-22T11:22:36.032Z,100.00
2023-05-22T11:25:11.348Z,100.00
2023-05-22T11:27:40.716Z,100.00
2023-05-22T11:30:09.600Z,100.00
2023-05-22T11:32:37.837Z,100.00
2023-05-22T11:35:10.944Z,100.00
2023-05-22T11:37:40.980Z,100.00
2023-05-22T11:40:08.859Z,100.00
2023-05-22T11:42:36.307Z,100.00
2023-05-22T11:45:04.159Z,100.00
2023-05-22T11:47:31.858Z,100.00
2023-05-22T11:50:00.034Z,100.00
2023-05-22T11:52:31.659Z,100.00
2023-05-22T11:54:58.386Z,100.00
2023-05-22T11:57:25.256Z,100.00
2023-05-22T11:59:51.918Z,100.00
2023-05-22T12:02:19.653Z,100.00
2023-05-22T12:04:46.739Z,100.00
2023-05-22T12:07:13.502Z,100.00
2023-05-22T12:09:40.845Z,100.00
2023-05-22T12:12:11.552Z,100.00
2023-05-22T12:14:38.471Z,100.00
2023-05-22T12:17:05.349Z,100.00
2023-05-22T12:19:32.642Z,100.00
2023-05-22T12:21:59.651Z,100.00
2023-05-22T12:24:26.542Z,100.00
2023-05-22T12:26:56.817Z,100.00
2023-05-22T12:29:23.797Z,100.00
2023-05-22T12:31:51.036Z,100.00
2023-05-22T12:34:21.473Z,100.00
2023-05-22T12:36:48.430Z,100.00
2023-05-22T12:39:19.072Z,100.00
2023-05-22T12:41:46.541Z,100.00
2023-05-22T12:44:16.481Z,100.00
2023-05-22T12:46:43.656Z,100.00
2023-05-22T12:49:11.018Z,100.00
2023-05-22T12:51:37.745Z,100.00
2023-05-22T12:54:04.853Z,100.00
2023-05-22T12:56:31.933Z,100.00
2023-05-22T12:58:58.881Z,100.00
2023-05-22T13:01:26.358Z,100.00
2023-05-22T13:03:53.340Z,100.00
2023-05-22T13:06:20.631Z,100.00
2023-05-22T13:08:47.439Z,100.00
2023-05-22T13:11:14.188Z,100.00
2023-05-22T13:13:41.094Z,100.00
2023-05-22T13:16:09.127Z,100.00
2023-05-22T13:18:35.919Z,100.00
2023-05-22T13:21:02.694Z,100.00
2023-05-22T13:23:29.333Z,100.00
2023-05-22T13:25:56.050Z,100.00
2023-05-22T13:28:22.786Z,100.00
2023-05-22T13:30:49.453Z,100.00
2023-05-22T13:33:16.489Z,100.00
2023-05-22T13:35:43.176Z,100.00
2023-05-22T13:38:09.878Z,100.00
2023-05-22T13:40:37.052Z,100.00
2023-05-22T13:43:03.751Z,100.00
2023-05-22T13:45:31.286Z,100.00
2023-05-22T13:47:58.014Z,98.67
2023-05-22T13:50:24.737Z,100.00
2023-05-22T13:52:51.457Z,100.00
2023-05-22T13:55:18.170Z,99.59
2023-05-22T13:57:44.866Z,100.00
2023-05-22T14:00:12.872Z,96.75
2023-05-22T14:02:39.653Z,98.62
2023-05-22T14:05:06.877Z,96.07
2023-05-22T14:07:33.628Z,98.68
2023-05-22T14:10:01.533Z,96.03
2023-05-22T14:12:28.644Z,96.34
2023-05-22T14:14:55.404Z,88.28
2023-05-22T14:17:22.201Z,91.28
2023-05-22T14:19:48.930Z,92.23
2023-05-22T14:22:15.651Z,91.71
2023-05-22T14:24:42.824Z,95.71
2023-05-22T14:27:10.171Z,93.94
2023-05-22T14:29:37.033Z,90.75
2023-05-22T14:32:05.476Z,93.38
2023-05-22T14:34:32.748Z,93.44
2023-05-22T14:36:59.513Z,96.22
2023-05-22T14:39:26.304Z,100.00
2023-05-22T14:41:53.922Z,100.00
2023-05-22T14:44:22.599Z,97.72
2023-05-22T14:46:51.238Z,100.00
2023-05-22T14:49:18.399Z,100.00
2023-05-22T14:51:48.390Z,100.00
2023-05-22T14:54:19.299Z,100.00
2023-05-22T14:56:46.596Z,100.00
2023-05-22T14:59:14.355Z,97.15
2023-05-22T15:01:41.507Z,95.04
2023-05-22T15:04:09.042Z,100.00
2023-05-22T15:06:36.306Z,96.76
2023-05-22T15:09:03.496Z,98.93
2023-05-22T15:11:30.379Z,98.98
2023-05-22T15:13:57.220Z,98.45
2023-05-22T15:16:26.014Z,97.56
2023-05-22T15:18:52.917Z,96.76
2023-05-22T15:21:19.769Z,97.11
2023-05-22T15:23:47.312Z,100.00
2023-05-22T15:26:13.989Z,100.00
2023-05-22T15:28:41.017Z,100.00
2023-05-22T15:31:07.726Z,100.00
2023-05-22T15:33:34.472Z,100.00
2023-05-22T15:36:01.309Z,100.00
2023-05-22T15:38:31.245Z,100.00
2023-05-22T15:40:59.204Z,100.00
2023-05-22T15:43:28.075Z,100.00
2023-05-22T15:45:57.042Z,100.00
2023-05-22T15:48:25.412Z,100.00
2023-05-22T15:50:53.380Z,100.00
2023-05-22T15:53:22.124Z,100.00
2023-05-22T15:55:51.224Z,100.00
2023-05-22T15:58:18.229Z,100.00
2023-05-22T16:00:45.434Z,100.00
2023-05-22T16:03:13.093Z,100.00
2023-05-22T16:05:41.507Z,100.00
2023-05-22T16:08:11.975Z,100.00
2023-05-22T16:10:41.633Z,100.00
2023-05-22T16:13:10.692Z,100.00
2023-05-22T16:15:39.813Z,100.00
2023-05-22T16:18:07.618Z,100.00
2023-05-22T16:20:35.552Z,100.00
2023-05-22T16:23:02.481Z,100.00
2023-05-22T16:25:29.162Z,100.00
2023-05-22T16:27:56.560Z,100.00
2023-05-22T16:30:23.250Z,100.00
2023-05-22T16:32:50.029Z,100.00
2023-05-22T16:35:16.923Z,100.00
2023-05-22T16:37:43.643Z,100.00
2023-05-22T16:40:11.027Z,100.00
2023-05-22T16:42:43.034Z,100.00
2023-05-22T16:45:09.798Z,100.00
2023-05-22T16:47:36.521Z,100.00
2023-05-22T16:50:03.553Z,100.00
2023-05-22T16:52:30.793Z,100.00
2023-05-22T16:54:57.807Z,100.00
2023-05-22T16:57:27.562Z,100.00
2023-05-22T16:59:56.420Z,100.00
2023-05-22T17:02:24.573Z,100.00
2023-05-22T17:04:51.363Z,100.00
2023-05-22T17:07:18.232Z,100.00
2023-05-22T17:09:44.952Z,100.00
2023-05-22T17:12:11.650Z,100.00
2023-05-22T17:14:38.408Z,100.00
2023-05-22T17:17:05.312Z,100.00
2023-05-22T17:19:32.514Z,100.00
2023-05-22T17:21:59.350Z,100.00
2023-05-22T17:24:27.860Z,100.00
2023-05-22T17:26:54.614Z,100.00
2023-05-22T17:29:21.300Z,100.00
2023-05-22T17:31:48.197Z,100.00
2023-05-22T17:34:14.962Z,100.00
2023-05-22T17:36:43.298Z,100.00
2023-05-22T17:39:11.551Z,100.00
2023-05-22T17:41:38.361Z,100.00
2023-05-22T17:44:05.081Z,100.00
2023-05-22T17:46:32.136Z,100.00
2023-05-22T17:48:58.971Z,100.00
2023-05-22T17:51:25.732Z,100.00
2023-05-22T17:53:56.111Z,100.00
2023-05-22T17:56:23.618Z,100.00
2023-05-22T17:58:50.904Z,100.00
2023-05-22T18:01:18.663Z,100.00
2023-05-22T18:03:46.289Z,100.00
2023-05-22T18:06:13.389Z,100.00
2023-05-22T18:08:40.766Z,100.00
2023-05-22T18:11:07.469Z,100.00
2023-05-22T18:13:34.216Z,100.00
2023-05-22T18:16:02.367Z,100.00
2023-05-22T18:18:29.059Z,100.00
2023-05-22T18:20:58.624Z,100.00
2023-05-22T18:23:25.480Z,100.00
2023-05-22T18:25:52.373Z,100.00
2023-05-22T18:28:20.929Z,100.00
2023-05-22T18:30:49.684Z,100.00
2023-05-22T18:33:16.668Z,100.00
2023-05-22T18:35:43.732Z,100.00
2023-05-22T18:38:10.513Z,100.00
2023-05-22T18:40:37.237Z,100.00
2023-05-22T18:43:03.971Z,100.00
2023-05-22T18:45:30.651Z,100.00
2023-05-22T18:47:57.326Z,100.00
2023-05-22T18:50:24.160Z,100.00
2023-05-22T18:52:50.927Z,100.00
2023-05-22T18:55:17.619Z,100.00
2023-05-22T18:57:44.345Z,100.00
2023-05-22T19:00:11.326Z,100.00
2023-05-22T19:02:38.030Z,100.00
2023-05-22T19:05:05.254Z,100.00
2023-05-22T19:07:32.033Z,100.00
2023-05-22T19:09:59.242Z,100.00
2023-05-22T19:12:28.422Z,100.00
2023-05-22T19:14:55.065Z,100.00
2023-05-22T19:17:21.820Z,100.00
2023-05-22T19:19:48.542Z,100.00
2023-05-22T19:22:17.830Z,100.00
2023-05-22T19:24:45.008Z,100.00
2023-05-22T19:27:11.721Z,100.00
2023-05-22T19:29:38.433Z,100.00
2023-05-22T19:32:05.595Z,100.00
2023-05-22T19:34:32.343Z,100.00
2023-05-22T19:36:59.059Z,100.00
2023-05-22T19:39:25.944Z,100.00
2023-05-22T19:41:52.991Z,100.00
2023-05-22T19:44:19.650Z,100.00
2023-05-22T19:46:46.676Z,100.00
2023-05-22T19:49:13.659Z,100.00
2023-05-22T19:51:40.953Z,100.00
2023-05-22T19:54:07.714Z,100.00
2023-05-22T19:56:35.765Z,100.00
2023-05-22T19:59:02.460Z,100.00
2023-05-22T20:01:29.179Z,100.00
2023-05-22T20:03:56.310Z,100.00
2023-05-22T20:06:23.171Z,100.00
2023-05-22T20:08:49.832Z,100.00
2023-05-22T20:11:16.551Z,100.00
2023-05-22T20:13:43.208Z,100.00
2023-05-22T20:16:12.754Z,100.00
2023-05-22T20:18:41.179Z,100.00
2023-05-22T20:21:08.178Z,100.00
2023-05-22T20:23:34.941Z,100.00
2023-05-22T20:26:01.654Z,100.00
2023-05-22T20:28:28.533Z,100.00
2023-05-22T20:30:55.193Z,100.00
2023-05-22T20:33:22.055Z,100.00
2023-05-22T20:35:52.875Z,100.00
2023-05-22T20:38:20.066Z,100.00
2023-05-22T20:40:47.905Z,100.00
2023-05-22T20:43:15.143Z,100.00
2023-05-22T20:45:45.978Z,100.00
2023-05-22T20:48:13.852Z,100.00
2023-05-22T20:50:42.305Z,100.00
2023-05-22T20:53:09.098Z,100.00
2023-05-22T20:55:35.870Z,100.00
2023-05-22T20:58:02.597Z,100.00
2023-05-22T21:00:30.076Z,100.00
2023-05-22T21:02:58.341Z,100.00
2023-05-22T21:05:26.350Z,100.00
2023-05-22T21:07:53.148Z,100.00
2023-05-22T21:10:19.885Z,100.00
2023-05-22T21:12:46.622Z,100.00
2023-05-22T21:15:13.316Z,100.00
2023-05-22T21:17:40.287Z,100.00
2023-05-22T21:20:08.153Z,100.00
2023-05-22T21:22:34.860Z,100.00
2023-05-22T21:25:01.598Z,100.00
2023-05-22T21:27:28.305Z,100.00
2023-05-22T21:29:54.970Z,100.00
2023-05-22T21:32:21.668Z,100.00
2023-05-22T21:34:48.328Z,100.00
2023-05-22T21:37:15.017Z,100.00
2023-05-22T21:39:41.780Z,100.00
2023-05-22T21:42:08.878Z,100.00
2023-05-22T21:44:36.011Z,100.00
2023-05-22T21:47:02.833Z,100.00
2023-05-22T21:49:29.509Z,100.00
2023-05-22T21:51:56.180Z,100.00
2023-05-22T21:54:22.933Z,100.00
2023-05-22T21:56:49.644Z,100.00
2023-05-22T21:59:16.380Z,100.00
2023-05-22T22:01:43.205Z,100.00
2023-05-22T22:04:09.995Z,100.00
2023-05-22T22:06:37.050Z,100.00
2023-05-22T22:09:03.990Z,100.00
2023-05-22T22:11:30.787Z,100.00
2023-05-22T22:13:57.510Z,100.00
2023-05-22T22:16:24.536Z,100.00
2023-05-22T22:18:51.529Z,100.00
2023-05-22T22:21:18.311Z,100.00
2023-05-22T22:23:45.033Z,100.00
2023-05-22T22:26:14.514Z,100.00
2023-05-22T22:28:41.186Z,100.00
2023-05-22T22:31:07.876Z,100.00
2023-05-22T22:33:34.674Z,100.00
2023-05-22T22:36:01.922Z,100.00
2023-05-22T22:38:28.940Z,100.00
2023-05-22T22:40:55.728Z,100.00
2023-05-22T22:43:22.393Z,100.00
2023-05-22T22:45:49.102Z,100.00
2023-05-22T22:48:16.706Z,100.00
2023-05-22T22:50:44.139Z,100.00
2023-05-22T22:53:12.482Z,100.00
2023-05-22T22:55:39.596Z,100.00
2023-05-22T22:58:07.910Z,100.00
2023-05-22T23:00:34.584Z,100.00
2023-05-22T23:03:01.320Z,100.00
2023-05-22T23:05:28.280Z,100.00
2023-05-22T23:07:56.079Z,100.00
2023-05-22T23:10:22.851Z,100.00
2023-05-22T23:12:50.279Z,100.00
2023-05-22T23:15:17.220Z,100.00
2023-05-22T23:17:43.944Z,100.00
2023-05-22T23:20:11.062Z,100.00
2023-05-22T23:22:37.847Z,100.00
2023-05-22T23:25:04.889Z,100.00
2023-05-22T23:27:31.806Z,100.00
2023-05-22T23:29:58.533Z,100.00
2023-05-22T23:32:25.298Z,100.00
2023-05-22T23:34:52.131Z,100.00
2023-05-22T23:37:18.854Z,100.00
2023-05-22T23:39:45.554Z,100.00
2023-05-22T23:42:12.278Z,100.00
2023-05-22T23:44:39.040Z,100.00
2023-05-22T23:47:06.706Z,100.00
2023-05-22T23:49:33.668Z,100.00
2023-05-22T23:52:00.429Z,100.00
2023-05-22T23:54:27.112Z,100.00
2023-05-22T23:56:53.803Z,100.00
2023-05-22T23:59:22.001Z,100.00
